Time;durP1;ratioP1;P1;durP2;ratioP2;P2;SDS_P1;SDS_P2;PMS_P1;PMS_P2;Temp;Humidity;BMP_temperature;BMP_pressure;BME280_temperature;BME280_humidity;BME280_pressure;Samples;Min_cycle;Max_cycle;Signal;HPM_P1;HPM_P2
2022/05/21 00:00:10;;;;;;;6.00;1.85;;;;;;;26.14;36.14;102165.63;5052840;28;20467;-48
2022/05/21 00:02:38;;;;;;;4.97;1.85;;;;;;;26.18;36.09;102171.84;5052813;28;20087;-47
2022/05/21 00:05:07;;;;;;;4.70;2.13;;;;;;;26.09;36.27;102180.38;5051453;28;20467;-45
2022/05/21 00:07:36;;;;;;;3.53;1.40;;;;;;;26.08;36.23;102168.06;5053189;28;20040;-46
2022/05/21 00:10:05;;;;;;;4.32;1.60;;;;;;;26.06;36.21;102164.50;5053083;28;20040;-45
2022/05/21 00:12:32;;;;;;;4.75;1.55;;;;;;;26.02;36.19;102167.91;5019306;28;20057;-47
2022/05/21 00:15:01;;;;;;;4.78;1.67;;;;;;;26.00;35.98;102173.16;5051724;28;20489;-45
2022/05/21 00:17:30;;;;;;;3.67;1.60;;;;;;;26.03;36.19;102172.31;5052968;28;20025;-46
2022/05/21 00:19:57;;;;;;;3.83;1.58;;;;;;;25.99;36.18;102167.84;5035261;28;20103;-49
2022/05/21 00:22:26;;;;;;;4.13;1.30;;;;;;;26.00;35.93;102153.84;5068161;28;20031;-45
2022/05/21 00:24:55;;;;;;;5.95;1.67;;;;;;;26.00;36.54;102164.34;5051314;28;20052;-45
2022/05/21 00:27:23;;;;;;;3.25;1.50;;;;;;;25.92;36.00;102159.81;5068202;28;20033;-46
2022/05/21 00:29:52;;;;;;;3.63;1.65;;;;;;;25.96;35.99;102162.53;5051536;28;20025;-45
2022/05/21 00:32:20;;;;;;;4.55;1.70;;;;;;;25.93;36.26;102153.72;5056235;28;20029;-45
2022/05/21 00:34:49;;;;;;;4.50;1.58;;;;;;;25.90;35.88;102144.84;5055267;28;20020;-45
2022/05/21 00:37:17;;;;;;;4.10;1.75;;;;;;;26.00;35.98;102152.13;5071446;28;20025;-45
2022/05/21 00:39:46;;;;;;;3.72;1.40;;;;;;;25.91;36.01;102150.16;5056511;28;20021;-48
2022/05/21 00:42:15;;;;;;;2.10;1.08;;;;;;;25.98;36.21;102145.06;5071888;28;20036;-44
2022/05/21 00:44:43;;;;;;;3.85;0.95;;;;;;;25.94;36.20;102142.34;5056150;28;20071;-47
2022/05/21 00:47:12;;;;;;;4.90;1.48;;;;;;;25.79;35.94;102115.72;5072120;28;20039;-47
2022/05/21 00:49:41;;;;;;;3.55;1.13;;;;;;;25.93;35.85;102143.19;5054782;28;20025;-48
2022/05/21 00:52:13;;;;;;;2.33;1.00;;;;;;;25.90;36.14;102129.06;5054868;28;20029;-46
2022/05/21 00:54:46;;;;;;;3.35;1.20;;;;;;;25.83;36.03;102116.66;5056212;28;20032;-46
2022/05/21 00:57:20;;;;;;;2.97;1.02;;;;;;;25.91;35.90;102121.25;5055138;28;20374;-47
2022/05/21 00:59:52;;;;;;;3.92;1.35;;;;;;;25.85;36.09;102121.09;5056367;28;20029;-47
2022/05/21 01:02:22;;;;;;;3.00;1.13;;;;;;;25.84;36.54;102119.31;5056150;28;20040;-45
2022/05/21 01:04:51;;;;;;;7.53;1.42;;;;;;;25.84;36.29;102121.06;5054458;28;20032;-49
2022/05/21 01:07:20;;;;;;;4.80;1.50;;;;;;;25.78;36.11;102113.94;5055671;28;20108;-45
2022/05/21 01:09:53;;;;;;;2.88;1.23;;;;;;;25.78;36.23;102117.44;5055908;28;20029;-48
2022/05/21 01:12:26;;;;;;;4.50;1.40;;;;;;;25.74;36.18;102115.56;5071701;28;20053;-48
2022/05/21 01:14:58;;;;;;;3.92;1.10;;;;;;;25.74;36.39;102102.44;5055917;28;20029;-45
2022/05/21 01:17:26;;;;;;;3.63;1.23;;;;;;;25.76;36.11;102099.84;5054444;28;20021;-45
2022/05/21 01:20:15;;;;;;;5.20;2.00;;;;;;;25.81;35.86;102110.47;5054226;28;20032;-45
2022/05/21 01:22:48;;;;;;;3.20;1.25;;;;;;;25.85;35.94;102104.44;5055558;28;20497;-45
2022/05/21 01:25:21;;;;;;;4.28;1.10;;;;;;;25.77;36.01;102101.63;5054005;28;20049;-45
2022/05/21 01:27:50;;;;;;;3.78;0.93;;;;;;;25.83;36.09;102111.41;5055469;28;20035;-46
2022/05/21 01:30:23;;;;;;;3.70;1.27;;;;;;;25.79;36.22;102103.44;5021588;28;20032;-45
2022/05/21 01:32:52;;;;;;;4.47;1.45;;;;;;;25.65;35.96;102082.97;5055300;28;20029;-45
2022/05/21 01:35:20;;;;;;;2.75;1.13;;;;;;;25.75;35.96;102092.81;5055423;28;20399;-48
2022/05/21 01:37:49;;;;;;;3.65;1.30;;;;;;;25.71;36.17;102086.63;5055250;28;20506;-44
2022/05/21 01:40:18;;;;;;;3.05;1.50;;;;;;;25.74;36.23;102085.78;5055068;28;20033;-45
2022/05/21 01:44:37;;;;;;;2.50;0.88;;;;;;;25.75;35.83;102084.94;5054688;28;20063;-45
2022/05/21 01:45:34;;;;;;;2.38;0.90;;;;;;;25.73;35.96;102089.28;5054760;28;20029;-46
2022/05/21 01:48:04;;;;;;;3.97;1.10;;;;;;;25.71;36.07;102080.47;5055299;28;20439;-47
2022/05/21 01:50:33;;;;;;;4.53;1.05;;;;;;;25.69;35.99;102075.19;5055105;28;20090;-47
2022/05/21 01:53:02;;;;;;;4.55;1.20;;;;;;;25.74;35.80;102080.53;5054972;28;20036;-49
2022/05/21 01:55:31;;;;;;;6.25;1.35;;;;;;;25.75;36.13;102082.31;5055295;28;20075;-47
2022/05/21 01:57:58;;;;;;;4.85;1.20;;;;;;;25.66;36.06;102071.56;5054797;28;20025;-47
2022/05/21 02:00:27;;;;;;;1.90;0.88;;;;;;;25.65;36.04;102069.81;5054800;28;20489;-45
2022/05/21 02:02:55;;;;;;;2.83;0.95;;;;;;;25.65;35.83;102081.22;5054680;28;20033;-45
2022/05/21 02:05:23;;;;;;;2.88;1.13;;;;;;;25.62;36.16;102075.88;5053187;28;20505;-48
2022/05/21 02:07:52;;;;;;;2.00;0.70;;;;;;;25.57;36.09;102075.78;5054636;28;20032;-46
2022/05/21 02:10:22;;;;;;;4.78;1.40;;;;;;;25.47;36.34;102052.78;5069976;28;20021;-47
2022/05/21 02:12:51;;;;;;;2.63;0.98;;;;;;;25.60;35.91;102078.47;5069962;28;20029;-45
2022/05/21 02:15:19;;;;;;;2.00;1.00;;;;;;;25.59;35.81;102068.81;5053415;28;20029;-45
2022/05/21 02:17:48;;;;;;;2.95;1.10;;;;;;;25.55;36.18;102072.22;5052759;28;20021;-47
2022/05/21 02:20:16;;;;;;;2.78;0.90;;;;;;;25.55;36.08;102068.72;5054541;28;20387;-45
2022/05/21 02:22:45;;;;;;;2.95;1.00;;;;;;;25.51;36.19;102070.34;5054021;28;20490;-45
2022/05/21 02:25:16;;;;;;;2.03;0.90;;;;;;;25.48;36.13;102076.44;5054102;28;20040;-47
2022/05/21 02:27:45;;;;;;;2.47;0.90;;;;;;;25.46;36.26;102054.50;5053468;28;20029;-45
2022/05/21 02:30:14;;;;;;;3.95;0.98;;;;;;;25.48;36.22;102065.94;5054565;28;20078;-48
2022/05/21 02:32:42;;;;;;;1.98;1.00;;;;;;;25.48;36.02;102065.06;5053010;28;20143;-44
2022/05/21 02:35:11;;;;;;;1.65;0.73;;;;;;;25.39;36.04;102047.31;5054022;28;20060;-45
2022/05/21 02:40:27;;;;;;;2.00;1.13;;;;;;;25.50;35.96;102068.59;5053849;28;20036;-44
2022/05/21 02:42:55;;;;;;;1.42;0.60;;;;;;;25.49;35.85;102058.91;5052880;28;20085;-45
2022/05/21 02:45:26;;;;;;;3.85;1.02;;;;;;;25.51;36.11;102058.97;5069121;28;20044;-46
2022/05/21 02:47:55;;;;;;;3.42;0.77;;;;;;;25.30;36.08;102026.94;5053727;28;20029;-46
2022/05/21 02:50:26;;;;;;;2.50;0.73;;;;;;;25.42;35.88;102054.38;5054091;28;20378;-46
2022/05/21 02:52:55;;;;;;;3.30;0.90;;;;;;;25.43;35.88;102051.78;5052353;28;20064;-47
2022/05/21 02:55:23;;;;;;;2.15;0.70;;;;;;;25.45;35.71;102060.59;5052016;28;20036;-46
2022/05/21 02:57:52;;;;;;;2.67;1.00;;;;;;;25.42;36.13;102054.38;5053561;28;20033;-47
2022/05/21 03:00:25;;;;;;;2.65;1.00;;;;;;;25.41;36.17;102058.69;5052605;28;20117;-48
2022/05/21 03:02:54;;;;;;;1.92;0.82;;;;;;;25.43;35.93;102053.53;5053380;28;20033;-48
2022/05/21 03:05:23;;;;;;;2.15;0.73;;;;;;;25.44;35.67;102056.19;5053345;28;20021;-51
2022/05/21 03:07:53;;;;;;;2.58;0.98;;;;;;;25.46;35.64;102056.25;5053616;28;20021;-50
2022/05/21 03:10:23;;;;;;;2.33;0.80;;;;;;;25.47;35.69;102060.66;5052190;28;20404;-48
2022/05/21 03:13:02;;;;;;;1.95;0.77;;;;;;;25.42;35.66;102049.13;5053366;28;20103;-47
2022/05/21 03:15:32;;;;;;;2.58;0.80;;;;;;;25.38;35.67;102048.16;5053439;28;20051;-47
2022/05/21 03:18:02;;;;;;;1.55;0.70;;;;;;;25.35;35.56;102055.94;5053566;28;20356;-49
2022/05/21 03:20:31;;;;;;;2.78;1.13;;;;;;;25.36;35.57;102052.47;5053503;28;20475;-45
2022/05/21 03:22:59;;;;;;;1.33;0.55;;;;;;;25.36;35.98;102054.19;5053316;28;20037;-50
2022/05/21 03:25:28;;;;;;;4.22;0.80;;;;;;;25.33;35.86;102052.41;5068509;28;20135;-49
2022/05/21 03:27:56;;;;;;;2.83;0.70;;;;;;;25.32;35.89;102045.38;5053347;28;20029;-51
2022/05/21 03:30:27;;;;;;;1.33;0.73;;;;;;;25.28;35.67;102044.41;5053439;28;20028;-51
2022/05/21 03:32:56;;;;;;;3.13;1.15;;;;;;;25.32;35.68;102042.72;5053380;28;20078;-45
2022/05/21 03:35:25;;;;;;;2.03;0.80;;;;;;;25.29;35.80;102040.03;5053392;28;20033;-44
2022/05/21 03:37:55;;;;;;;3.90;0.95;;;;;;;25.30;35.82;102034.84;5053241;28;20031;-45
2022/05/21 03:40:26;;;;;;;1.20;0.75;;;;;;;25.25;35.60;102035.53;5052869;28;20546;-46
2022/05/21 03:42:54;;;;;;;2.47;0.90;;;;;;;25.30;35.48;102040.09;5051842;28;20383;-48
2022/05/21 03:45:23;;;;;;;2.35;0.90;;;;;;;25.36;35.62;102051.56;5053237;28;20020;-47
2022/05/21 03:47:52;;;;;;;1.83;0.90;;;;;;;25.33;35.64;102048.00;5053136;28;20025;-48
2022/05/21 03:50:24;;;;;;;2.00;0.90;;;;;;;25.29;35.65;102046.19;5053248;28;20487;-45
2022/05/21 03:52:53;;;;;;;1.45;0.65;;;;;;;25.29;35.38;102053.16;5053112;28;20040;-45
2022/05/21 03:55:22;;;;;;;1.52;0.50;;;;;;;25.27;35.36;102063.63;5053268;28;20052;-51
2022/05/21 03:57:50;;;;;;;1.58;0.68;;;;;;;25.29;35.72;102056.69;5053006;28;20048;-47
2022/05/21 04:00:20;;;;;;;2.83;0.90;;;;;;;25.24;35.73;102058.31;5053295;28;20021;-52
2022/05/21 04:02:49;;;;;;;1.70;0.52;;;;;;;25.25;35.58;102046.03;5053023;28;20029;-50
2022/05/21 04:05:18;;;;;;;2.13;0.73;;;;;;;25.25;35.34;102046.94;5053337;28;20075;-48
2022/05/21 04:07:47;;;;;;;2.30;1.10;;;;;;;25.22;35.68;102044.25;5055790;28;20021;-48
2022/05/21 04:10:19;;;;;;;1.95;0.77;;;;;;;25.23;35.78;102043.41;5057153;28;20090;-52
2022/05/21 04:12:48;;;;;;;2.42;0.75;;;;;;;25.20;35.64;102032.81;5057074;28;20427;-48
2022/05/21 04:15:17;;;;;;;2.53;0.73;;;;;;;25.18;35.65;102038.03;5056308;28;20026;-48
2022/05/21 04:17:46;;;;;;;0.82;0.35;;;;;;;25.17;35.81;102033.63;5056725;28;20025;-52
2022/05/21 04:20:16;;;;;;;1.23;0.45;;;;;;;25.16;35.31;102041.44;5056842;28;20025;-50
2022/05/21 04:22:45;;;;;;;3.92;0.80;;;;;;;25.14;35.29;102030.06;5056865;28;20021;-44
2022/05/21 04:25:14;;;;;;;1.40;0.70;;;;;;;25.19;35.28;102038.91;5056214;28;20072;-52
2022/05/21 04:27:43;;;;;;;2.25;0.73;;;;;;;25.16;35.64;102042.34;5056473;28;20445;-48
2022/05/21 04:30:16;;;;;;;1.65;0.77;;;;;;;25.16;35.36;102041.44;5056740;28;20460;-47
2022/05/21 04:32:46;;;;;;;2.22;0.60;;;;;;;25.12;35.45;102040.50;5056341;28;20064;-50
2022/05/21 04:35:15;;;;;;;2.55;1.05;;;;;;;25.15;35.48;102042.34;5056659;28;20055;-46
2022/05/21 04:37:43;;;;;;;0.95;0.50;;;;;;;25.15;35.38;102042.34;5056252;28;20108;-45
2022/05/21 04:40:15;;;;;;;2.55;0.65;;;;;;;25.21;35.15;102042.47;5056309;28;20471;-46
2022/05/21 04:42:43;;;;;;;2.17;0.55;;;;;;;25.16;35.26;102038.81;5056447;28;20470;-47
2022/05/21 04:45:12;;;;;;;1.00;0.47;;;;;;;25.13;35.27;102041.41;5056191;28;20037;-46
2022/05/21 04:47:41;;;;;;;3.22;0.85;;;;;;;25.14;35.61;102038.81;5056269;28;20063;-48
2022/05/21 04:50:10;;;;;;;2.17;0.75;;;;;;;25.09;35.53;102031.66;5055496;28;20044;-49
2022/05/21 04:52:39;;;;;;;1.98;0.80;;;;;;;25.06;35.53;102023.72;5055738;28;20032;-51
2022/05/21 04:55:09;;;;;;;2.13;0.52;;;;;;;25.11;35.14;102033.47;5054915;28;20080;-51
2022/05/21 04:57:38;;;;;;;1.63;0.80;;;;;;;25.16;35.28;102031.84;5055931;28;20441;-48
2022/05/21 05:00:07;;;;;;;2.33;0.50;;;;;;;25.17;35.37;102035.34;5056059;28;20025;-51
2022/05/21 05:02:36;;;;;;;1.02;0.40;;;;;;;25.13;35.35;102033.53;5056010;28;20025;-47
2022/05/21 05:05:06;;;;;;;2.38;0.90;;;;;;;25.11;35.40;102029.97;5055847;28;20032;-49
2022/05/21 05:07:35;;;;;;;1.25;0.52;;;;;;;25.13;35.48;102033.53;5056042;28;20364;-46
2022/05/21 05:10:03;;;;;;;3.45;0.82;;;;;;;25.09;35.05;102035.16;5055890;28;20021;-47
2022/05/21 05:12:32;;;;;;;2.85;1.00;;;;;;;25.09;35.41;102037.78;5055761;28;20039;-51
2022/05/21 05:15:01;;;;;;;1.73;0.60;;;;;;;25.12;35.43;102037.88;5055985;28;20066;-48
2022/05/21 05:17:30;;;;;;;1.23;0.50;;;;;;;25.12;35.35;102034.38;5054516;28;20123;-50
2022/05/21 05:20:00;;;;;;;3.55;0.93;;;;;;;25.14;35.23;102036.19;5055574;28;20390;-47
2022/05/21 05:22:29;;;;;;;3.42;0.80;;;;;;;25.13;35.39;102039.66;5055939;28;20054;-50
2022/05/21 05:24:57;;;;;;;4.47;0.85;;;;;;;25.15;35.23;102037.09;5055077;28;20495;-52
2022/05/21 05:27:26;;;;;;;6.68;1.27;;;;;;;25.18;35.15;102039.75;5055564;28;20123;-46
2022/05/21 05:29:55;;;;;;;2.67;0.60;;;;;;;25.14;35.39;102045.81;5055435;28;20021;-45
2022/05/21 05:32:23;;;;;;;7.38;1.20;;;;;;;25.17;35.50;102049.38;5055317;28;20502;-46
2022/05/21 05:34:52;;;;;;;3.42;1.10;;;;;;;25.16;35.80;102042.34;5055477;28;20356;-52
2022/05/21 05:37:20;;;;;;;2.15;0.70;;;;;;;25.10;36.05;102043.94;5053878;28;20021;-52
2022/05/21 05:39:49;;;;;;;4.65;0.70;;;;;;;25.21;35.77;102057.34;5055224;28;20041;-46
2022/05/21 05:42:17;;;;;;;5.90;0.80;;;;;;;25.30;35.65;102054.94;5055167;28;20040;-47
2022/05/21 05:44:46;;;;;;;4.70;0.75;;;;;;;25.37;35.36;102063.84;5055177;28;20025;-49
2022/05/21 05:47:14;;;;;;;5.80;0.80;;;;;;;25.51;35.16;102066.84;5055118;28;20060;-46
2022/05/21 05:49:43;;;;;;;5.68;1.30;;;;;;;25.58;35.41;102074.91;5055196;28;20036;-47
2022/05/21 05:52:11;;;;;;;2.40;0.82;;;;;;;25.65;35.16;102070.69;5055028;28;20075;-45
2022/05/21 05:54:40;;;;;;;2.67;0.57;;;;;;;25.72;35.19;102069.09;5055002;28;20467;-47
2022/05/21 05:57:12;;;;;;;3.35;0.93;;;;;;;25.69;35.42;102063.75;5054712;28;20029;-46
2022/05/21 05:59:50;;;;;;;2.38;0.57;;;;;;;25.85;35.26;102072.91;5054957;28;20031;-45
2022/05/21 06:03:01;;;;;;;3.72;0.75;;;;;;;25.76;35.22;102057.81;5054942;28;20466;-47
2022/05/21 06:05:13;;;;;;;10.48;0.82;;;;;;;25.94;35.14;102081.88;5054331;28;20041;-46
2022/05/21 06:07:43;;;;;;;3.40;0.77;;;;;;;26.00;35.31;102082.84;5054859;28;20025;-46
2022/05/21 06:10:14;;;;;;;4.90;1.00;;;;;;;26.08;35.20;102087.41;5054622;28;20066;-51
2022/05/21 06:12:43;;;;;;;2.83;0.85;;;;;;;26.12;35.10;102082.28;5053645;28;20455;-52
2022/05/21 06:15:12;;;;;;;3.55;1.13;;;;;;;26.07;35.08;102097.91;5054489;28;20049;-50
2022/05/21 06:17:41;;;;;;;6.82;0.80;;;;;;;26.06;35.33;102096.16;5054325;28;20036;-47
2022/05/21 06:20:14;;;;;;;4.65;1.23;;;;;;;26.08;35.24;102087.41;5054211;28;20470;-46
2022/05/21 06:22:44;;;;;;;2.80;1.23;;;;;;;26.05;35.25;102087.38;5054501;28;20041;-45
2022/05/21 06:25:17;;;;;;;5.50;0.95;;;;;;;26.11;35.11;102085.72;5054177;28;20048;-46
2022/05/21 06:27:47;;;;;;;7.03;1.10;;;;;;;26.15;35.17;102079.72;5052903;28;20031;-45
2022/05/21 06:30:16;;;;;;;3.47;1.02;;;;;;;26.15;35.00;102090.22;5054262;28;20378;-52
2022/05/21 06:32:45;;;;;;;5.50;1.15;;;;;;;26.19;34.84;102086.81;5053247;28;20029;-48
2022/05/21 06:35:14;;;;;;;2.70;1.17;;;;;;;26.24;35.23;102091.31;5054368;28;20036;-48
2022/05/21 06:37:43;;;;;;;2.95;1.10;;;;;;;26.26;35.10;102091.34;5054177;28;20075;-48
2022/05/21 06:40:12;;;;;;;3.85;1.00;;;;;;;26.23;35.09;102083.38;5069648;28;20387;-52
2022/05/21 06:42:41;;;;;;;3.50;1.08;;;;;;;26.29;34.78;102091.41;5054226;28;20075;-50
2022/05/21 06:45:10;;;;;;;3.08;1.10;;;;;;;26.30;34.79;102087.94;5053521;28;20117;-45
2022/05/21 06:47:39;;;;;;;4.53;1.55;;;;;;;26.32;34.85;102085.31;5054014;28;20025;-49
2022/05/21 06:50:08;;;;;;;3.50;1.00;;;;;;;26.42;34.80;102087.28;5053789;28;20031;-51
2022/05/21 06:52:39;;;;;;;4.78;1.08;;;;;;;26.47;34.58;102090.00;5053630;28;20039;-46
2022/05/21 06:55:08;;;;;;;5.47;1.52;;;;;;;26.49;34.84;102090.94;5053980;28;20025;-47
2022/05/21 06:57:37;;;;;;;4.47;0.98;;;;;;;26.51;34.77;102087.47;5053436;28;20071;-48
2022/05/21 07:00:07;;;;;;;3.17;0.90;;;;;;;26.53;34.82;102084.88;5053727;28;20060;-49
2022/05/21 07:02:36;;;;;;;4.25;1.05;;;;;;;26.59;34.58;102085.00;5053791;28;20020;-47
2022/05/21 07:07:52;;;;;;;4.65;1.05;;;;;;;26.58;34.86;102083.22;5050146;28;20072;-47
2022/05/21 07:10:24;;;;;;;3.33;1.13;;;;;;;26.60;34.80;102097.28;5053744;28;20017;-48
2022/05/21 07:12:53;;;;;;;4.00;1.75;;;;;;;26.62;34.94;102092.06;5053509;28;20036;-48
2022/05/21 07:15:22;;;;;;;3.70;0.88;;;;;;;26.65;35.15;102097.38;5053599;28;20116;-47
2022/05/21 07:17:51;;;;;;;3.83;1.10;;;;;;;26.61;34.96;102085.91;5053252;28;20107;-52
2022/05/21 07:20:21;;;;;;;4.78;1.25;;;;;;;26.68;35.19;102107.97;5052303;28;20382;-51
2022/05/21 07:22:50;;;;;;;2.95;0.65;;;;;;;26.68;35.30;102095.72;5068899;28;20368;-52
2022/05/21 07:25:21;;;;;;;3.30;1.05;;;;;;;26.70;35.39;102106.25;5053115;28;20045;-49
2022/05/21 07:27:50;;;;;;;6.75;0.88;;;;;;;26.76;35.02;102100.22;5053597;28;20021;-46
2022/05/21 07:30:19;;;;;;;2.50;0.70;;;;;;;26.73;34.99;102097.53;5053315;28;20021;-52
2022/05/21 07:32:50;;;;;;;2.72;0.73;;;;;;;26.77;35.25;102100.28;5053311;28;20029;-48
2022/05/21 07:35:19;;;;;;;5.50;0.90;;;;;;;26.84;35.04;102098.66;5053367;28;20021;-51
2022/05/21 07:37:49;;;;;;;2.38;0.65;;;;;;;26.82;35.35;102097.75;5053022;28;20024;-52
2022/05/21 07:40:18;;;;;;;2.28;0.80;;;;;;;26.83;35.41;102100.41;5055152;28;20491;-49
2022/05/21 07:42:47;;;;;;;3.35;0.95;;;;;;;26.95;35.33;102090.97;5059921;28;20496;-51
2022/05/21 07:45:18;;;;;;;2.95;0.80;;;;;;;26.94;35.14;102090.06;5059754;28;20020;-46
2022/05/21 07:47:47;;;;;;;2.88;0.85;;;;;;;27.04;35.03;102093.75;5060277;28;20100;-52
2022/05/21 07:50:16;;;;;;;4.15;0.80;;;;;;;27.09;35.31;102091.19;5058893;28;20079;-46
2022/05/21 07:52:45;;;;;;;4.03;0.80;;;;;;;27.16;35.05;102093.09;5059842;28;20067;-48
2022/05/21 07:55:14;;;;;;;4.82;1.30;;;;;;;27.19;35.32;102085.25;5059803;28;20552;-47
2022/05/21 07:57:43;;;;;;;3.38;1.00;;;;;;;27.24;35.32;102087.97;5059728;28;20025;-47
2022/05/21 08:00:17;;;;;;;1.73;0.75;;;;;;;27.29;35.09;102078.41;5059717;28;20033;-51
2022/05/21 08:02:46;;;;;;;6.82;1.30;;;;;;;27.33;35.04;102080.19;5059870;28;20088;-48
2022/05/21 08:05:15;;;;;;;2.50;1.05;;;;;;;27.32;35.15;102067.88;5059655;28;20478;-50
2022/05/21 08:07:49;;;;;;;8.65;0.90;;;;;;;27.39;35.28;102064.50;5058463;28;20387;-45
2022/05/21 08:10:18;;;;;;;6.32;1.42;;;;;;;27.40;34.85;102063.63;5058523;28;20029;-48
2022/05/21 08:12:47;;;;;;;4.55;1.23;;;;;;;27.42;35.27;102059.28;5058455;28;20390;-48
2022/05/21 08:15:16;;;;;;;4.10;1.15;;;;;;;27.46;35.14;102056.72;5059519;28;20033;-47
2022/05/21 08:17:45;;;;;;;4.18;1.30;;;;;;;27.51;35.09;102062.94;5075126;28;20025;-46
2022/05/21 08:20:14;;;;;;;4.10;1.15;;;;;;;27.58;35.33;102070.94;5059772;28;20090;-45
2022/05/21 08:28:18;;;;;;;4.68;1.17;;;;;;;27.66;35.15;102052.63;5056085;28;20495;-47
2022/05/21 08:30:48;;;;;;;4.82;1.08;;;;;;;27.69;35.27;102049.16;5058589;28;20029;-49
2022/05/21 08:33:18;;;;;;;3.45;0.80;;;;;;;27.78;35.06;102051.03;5059463;28;20115;-45
2022/05/21 08:35:47;;;;;;;2.97;0.70;;;;;;;27.75;35.05;102036.03;5058329;28;20025;-50
2022/05/21 08:38:16;;;;;;;3.03;0.93;;;;;;;27.83;35.29;102050.25;5059657;28;20021;-48
2022/05/21 08:40:56;;;;;;;5.38;1.20;;;;;;;27.84;34.94;102043.19;5059424;28;20112;-47
2022/05/21 08:43:46;;;;;;;3.75;0.90;;;;;;;27.89;35.02;102042.38;5058094;28;20032;-47
2022/05/21 08:46:26;;;;;;;4.43;1.02;;;;;;;27.96;34.85;102037.22;5035405;28;20417;-47
2022/05/21 08:49:07;;;;;;;3.42;1.10;;;;;;;27.97;34.87;102039.84;5059585;28;20024;-47
2022/05/21 08:51:43;;;;;;;5.85;1.58;;;;;;;28.02;34.68;102026.75;5073809;28;20028;-45
2022/05/21 08:54:13;;;;;;;4.55;1.58;;;;;;;28.04;35.01;102023.25;5071497;28;20118;-45
2022/05/21 08:56:42;;;;;;;4.32;1.10;;;;;;;28.05;34.90;102022.38;5038464;28;20021;-45
2022/05/21 08:59:11;;;;;;;3.00;0.98;;;;;;;28.10;34.86;102016.31;5071673;28;20087;-48
2022/05/21 09:01:44;;;;;;;5.82;1.00;;;;;;;28.14;34.72;102005.81;5056190;28;20028;-45
2022/05/21 09:04:13;;;;;;;4.65;1.40;;;;;;;28.16;34.66;102000.56;5054703;28;20415;-49
2022/05/21 09:06:52;;;;;;;4.43;1.00;;;;;;;28.19;34.66;102008.50;5070817;28;20031;-46
2022/05/21 09:09:20;;;;;;;4.63;1.38;;;;;;;28.19;34.90;102006.78;5055926;28;20075;-45
2022/05/21 09:11:53;;;;;;;3.15;0.85;;;;;;;28.17;34.91;102011.13;5054564;28;20576;-46
2022/05/21 09:14:43;;;;;;;3.55;0.98;;;;;;;28.27;34.65;102004.22;5054859;28;20024;-47
2022/05/21 09:17:14;;;;;;;5.55;1.02;;;;;;;28.26;34.73;102002.44;5038314;28;20125;-47
2022/05/21 09:19:49;;;;;;;3.33;1.00;;;;;;;28.28;34.88;101987.53;5055255;28;20021;-49
2022/05/21 09:22:20;;;;;;;3.60;1.00;;;;;;;28.25;34.71;101989.22;5055647;28;20029;-47
2022/05/21 09:24:51;;;;;;;3.53;0.85;;;;;;;28.27;34.50;101983.09;5054006;28;20094;-47
2022/05/21 09:27:26;;;;;;;2.85;0.70;;;;;;;28.32;34.65;101991.94;5055675;28;20032;-45
2022/05/21 09:30:11;;;;;;;5.32;1.33;;;;;;;28.37;34.80;101993.75;5055668;28;20116;-48
2022/05/21 09:32:39;;;;;;;;;;;;;;;28.46;34.37;101988.56;5055847;28;20033;-47
2022/05/21 09:35:09;;;;;;;2.50;0.80;;;;;;;28.43;34.58;101991.19;5055588;28;19912;-47
2022/05/21 09:37:38;;;;;;;3.40;1.00;;;;;;;28.45;34.57;101992.97;5054993;28;20021;-45
2022/05/21 09:40:27;;;;;;;3.53;0.85;;;;;;;28.47;34.47;101979.75;5055333;28;20096;-49
2022/05/21 09:45:43;;;;;;;1.88;0.80;;;;;;;28.51;34.47;101981.56;5050983;28;20080;-45
2022/05/21 09:48:11;;;;;;;5.18;1.02;;;;;;;28.50;34.42;101975.41;5055316;28;20025;-49
2022/05/21 09:50:50;;;;;;;2.22;0.77;;;;;;;28.56;34.61;101960.50;5053643;28;20079;-46
2022/05/21 09:53:39;;;;;;;4.10;1.10;;;;;;;28.54;34.58;101960.50;5053751;28;20029;-48
2022/05/21 09:56:12;;;;;;;2.88;1.00;;;;;;;28.57;34.37;101960.53;5053731;28;20478;-48
2022/05/21 09:58:42;;;;;;;4.15;1.33;;;;;;;28.61;34.19;101972.88;5053417;28;20056;-48
2022/05/21 10:01:16;;;;;;;4.20;1.13;;;;;;;28.61;34.36;101958.78;5053638;28;20386;-48
2022/05/21 10:03:45;;;;;;;3.20;0.80;;;;;;;28.66;34.27;101960.59;5054079;28;20052;-46
2022/05/21 10:06:33;;;;;;;2.00;0.65;;;;;;;28.69;34.27;101958.84;5054708;28;20116;-45
2022/05/21 10:12:15;;;;;;;4.10;1.10;;;;;;;28.71;34.05;101950.06;5051213;28;20036;-49
2022/05/21 10:15:07;;;;;;;5.22;1.15;;;;;;;28.77;34.12;101941.38;5048330;28;20044;-47
2022/05/21 10:17:40;;;;;;;2.58;0.75;;;;;;;28.74;34.29;101941.34;5054235;28;20025;-45
2022/05/21 10:20:28;;;;;;;3.33;0.93;;;;;;;28.81;34.36;101943.13;5053183;28;20500;-47
2022/05/21 10:23:11;;;;;;;3.10;0.93;;;;;;;28.82;34.00;101941.41;5043517;28;20072;-46
2022/05/21 10:26:01;;;;;;;1.70;0.63;;;;;;;28.86;34.14;101938.78;5054315;28;20072;-49
2022/05/21 10:29:07;;;;;;;3.03;0.98;;;;;;;28.75;33.92;101919.34;5054350;28;20032;-48
2022/05/21 10:32:13;;;;;;;2.47;1.00;;;;;;;28.87;33.94;101927.34;5045593;28;20060;-51
2022/05/21 10:35:04;;;;;;;2.38;0.68;;;;;;;28.86;33.60;101925.56;5052773;28;20028;-49
2022/05/21 10:37:53;;;;;;;5.20;1.77;;;;;;;28.87;33.66;101921.19;5050281;28;20037;-46
2022/05/21 10:40:55;;;;;;;3.28;1.00;;;;;;;28.86;33.75;101924.72;5049359;28;20075;-46
2022/05/21 10:43:43;;;;;;;3.78;1.00;;;;;;;28.87;33.90;101924.72;5053845;28;20033;-44
2022/05/21 10:46:13;;;;;;;2.75;0.73;;;;;;;28.92;33.67;101924.72;5054254;28;20028;-44
2022/05/21 10:49:07;;;;;;;2.95;0.88;;;;;;;28.92;33.93;101922.09;5054036;28;20029;-47
2022/05/21 10:51:37;;;;;;;3.20;1.00;;;;;;;28.96;33.62;101910.69;5045927;28;20068;-48
2022/05/21 10:54:25;;;;;;;3.13;0.70;;;;;;;28.95;33.60;101911.56;5052769;28;20501;-47
2022/05/21 10:57:00;;;;;;;3.58;1.10;;;;;;;28.97;33.73;101912.44;5047069;28;20041;-48
2022/05/21 10:59:34;;;;;;;3.40;0.90;;;;;;;28.95;33.68;101915.09;5052610;28;20060;-45
2022/05/21 11:02:25;;;;;;;5.00;1.55;;;;;;;28.95;33.17;101903.63;5053972;28;20044;-48
2022/05/21 11:05:13;;;;;;;2.03;1.02;;;;;;;29.03;33.14;101908.97;5049537;28;20405;-48
2022/05/21 11:07:47;;;;;;;3.88;1.10;;;;;;;28.99;33.44;101909.81;5047906;28;20094;-48
2022/05/21 11:10:38;;;;;;;1.98;0.70;;;;;;;29.02;33.51;101891.34;5052760;28;20120;-47
2022/05/21 11:13:28;;;;;;;4.65;0.80;;;;;;;29.02;33.23;101886.06;5045624;28;20045;-50
2022/05/21 11:15:58;;;;;;;2.13;0.50;;;;;;;29.03;33.02;101883.44;5043276;28;20041;-50
2022/05/21 11:18:43;;;;;;;2.97;0.88;;;;;;;29.08;33.32;101884.34;5052283;28;20099;-45
2022/05/21 11:21:27;;;;;;;3.67;1.13;;;;;;;29.14;33.45;101890.53;5053289;28;20078;-46
2022/05/21 11:24:09;;;;;;;3.83;1.10;;;;;;;29.15;33.47;101887.91;5052255;28;20063;-48
2022/05/21 11:26:47;;;;;;;5.30;1.30;;;;;;;29.07;33.38;101873.78;5052112;28;20479;-46
2022/05/21 11:29:54;;;;;;;3.92;1.00;;;;;;;29.15;33.58;101887.03;5053483;28;20036;-48
2022/05/21 11:38:27;;;;;;;3.85;0.90;;;;;;;29.19;33.71;101886.19;5048837;28;20510;-47
2022/05/21 11:41:25;;;;;;;2.50;0.80;;;;;;;29.18;33.51;101893.19;5052182;28;20025;-49
2022/05/21 11:43:57;;;;;;;3.63;1.13;;;;;;;29.24;33.69;101895.00;5053011;28;20040;-47
2022/05/21 11:46:43;;;;;;;4.70;0.88;;;;;;;29.22;33.50;101891.44;5053479;28;20040;-45
2022/05/21 11:49:37;;;;;;;3.80;1.30;;;;;;;29.19;33.70;101896.75;5053149;28;20049;-48
2022/05/21 11:52:28;;;;;;;3.45;0.90;;;;;;;29.20;33.80;101893.22;5045937;28;20041;-49
2022/05/21 11:54:56;;;;;;;4.55;0.77;;;;;;;29.23;33.55;101882.66;5044186;28;20083;-46
2022/05/21 11:57:44;;;;;;;3.90;0.90;;;;;;;29.22;33.77;101871.22;5052947;28;20119;-48
2022/05/21 12:00:21;;;;;;;5.25;1.40;;;;;;;29.24;33.87;101872.09;5052957;28;20029;-48
2022/05/21 12:02:58;;;;;;;2.97;0.80;;;;;;;29.26;33.92;101872.09;5052810;28;20394;-45
2022/05/21 12:05:41;;;;;;;4.57;1.00;;;;;;;29.24;34.03;101876.50;5052906;28;20029;-46
2022/05/21 12:08:30;;;;;;;3.30;1.08;;;;;;;29.24;33.94;101880.03;5053078;28;20021;-47
2022/05/21 12:11:02;;;;;;;3.15;1.02;;;;;;;29.25;33.88;101878.25;5052890;28;20032;-49